aviador You're here:

KOTG Decoded Metar

WORTHINGTON in MN, USA
Report Time2017-08-19 19:56:00
UTC Time2017-08-19 20:16:41
Flight Rules vfr VFR
Wind150° at 08 kt
W.Decomp.*RWY 18: 6.8 kt HW 4.2 kt LCW
RWY 11: 6.3 kt HW 4.9 kt RCW
W.Rank150° ranks 14
Current wind is below 150° avg. (9.7)
Visibility9999 m
Phenomena:N/A
Clouds:N/A
Expected CloudBase > 3,600 ft AGL from Temp-Dew spread
CeilingNone
Temp25°C (ISA +13)
Dew Point16°C (57% RH)
AAT24.1°C
QNH1014 hPa
Density Alt3,304 ft
Elevation1,575 ft
Report Wrong Elevation
Raw Report
METAR KOTG 191956Z AUTO 15008KT 10SM CLR 25/16 A2995 RMK AO2 SLP137
T02500161=

Extra information for KOTG:More info

Metar Taf Metar & Taf Last 4 Metars F.Rules Stats Wind Profile Meteogram Temp Stats Airport Information Weather charts Add Link Nearby VenuesMetar ALERT Operation Metar Decoded Social comments

AIRNAV info for KOTG